Rankings de siempre
Mejores tiempos personales válidos de equipo a través de todos los eventos y temporadas. Cada equipo aparece una vez por división.
Busca por nombre y abre la página donde está clasificado este récord de división.
137,494 equipos clasificados
| Pos. | Pos. AG | Equipo | Nacionalidad | Categoría de edad | TiempoMejor tiempo | Diferencia |
|---|---|---|---|---|---|---|
| 131926 | #10841 | Gabrielle Bachelet & Verane Do CarmoFRA · W 16-24 · AG #10841 | FRA | W 16-24 | 1:57:56 | +64:35 |
| 131927 | #19588 | Lauren Shaw & Lauren BellamyGBR · W 25-29 · AG #19588 | GBR | W 25-29 | 1:57:56 | +64:35 |
| 131928 | #18715 | Khirul Falisa Mustafa & Sook Ling DingMAS · W 40-44 · AG #18715 | MAS | W 40-44 | 1:57:56 | +64:35 |
| 131929 | #19589 | 绮雅 叶 & 若颜 王CHN · W 25-29 · AG #19589 | CHN | W 25-29 | 1:57:56 | +64:35 |
| 131930 | #18716 | Khadija Khunji & Muna AlbreikiUAE · W 40-44 · AG #18716 | UAE | W 40-44 | 1:57:57 | +64:36 |
| 131931 | #18717 | Lisa TURNER & Ange VALINTINENZL · W 40-44 · AG #18717 | NZL | W 40-44 | 1:57:57 | +64:36 |
| 131932 | #18718 | Deb Denny & Emily MolesAUS · W 40-44 · AG #18718 | AUS | W 40-44 | 1:57:57 | +64:36 |
| 131933 | -- | Hannah Jones & Rylie HoffUSA · W WU29 | USA | W WU29 | 1:57:57 | +64:36 |
| 131934 | #10842 | Faith George & Nicole FackrellGBR · W 16-24 · AG #10842 | GBR | W 16-24 | 1:57:57 | +64:36 |
| 131935 | #14381 | Courtney Murray & Shontel Van HaasterNZL · W 35-39 · AG #14381 | NZL | W 35-39 | 1:57:58 | +64:37 |
| 131936 | #18719 | Vanessa Carminati & Emilie DamiensW 40-44 · AG #18719 | -- | W 40-44 | 1:57:58 | +64:37 |
| 131937 | #18720 | Pernille Lund & Jill WortzigerDEN · W 40-44 · AG #18720 | DEN | W 40-44 | 1:57:58 | +64:37 |
| 131938 | -- | Darcy Bowkett & Rebecah WattsGBR · W WU29 | GBR | W WU29 | 1:57:58 | +64:37 |
| 131939 | #41762 | Ozlem Bas & Venus De JuanGBR · W 30-34 · AG #41762 | GBR | W 30-34 | 1:57:58 | +64:37 |
| 131940 | #41763 | Ivy Borenstein & Vanessa LeongW 30-34 · AG #41763 | -- | W 30-34 | 1:57:58 | +64:37 |
| 131941 | #41761 | Alyssa Camacho & Alex ElbertUSA · W 30-34 · AG #41761 | USA | W 30-34 | 1:57:58 | +64:37 |
| 131942 | #18721 | Bethanie GUBLER & Sheila MONGEONUSA · W 40-44 · AG #18721 | USA | W 40-44 | 1:57:58 | +64:37 |
| 131943 | -- | Joyce Lim & Carina ChuSIN · W WU29 | SIN | W WU29 | 1:57:58 | +64:37 |
| 131944 | #41764 | Nathalie Campoverde & Lola AguileraUSA · W 30-34 · AG #41764 | USA | W 30-34 | 1:57:58 | +64:37 |
| 131945 | #18722 | Tania Elizabeth Ponce Lopez & Rosalinda Flores FloresMEX · W 40-44 · AG #18722 | MEX | W 40-44 | 1:57:58 | +64:37 |
| 131946 | #19590 | Belén María Garrido Gómez & Clara SerraESP · W 25-29 · AG #19590 | ESP | W 25-29 | 1:57:58 | +64:37 |
| 131947 | #41765 | Linda Cruts & Anouk StevensNED · W 30-34 · AG #41765 | NED | W 30-34 | 1:57:59 | +64:38 |
| 131948 | #18723 | Stacy Mccallum & Linda BoydGBR · W 40-44 · AG #18723 | GBR | W 40-44 | 1:57:59 | +64:38 |
| 131949 | #41767 | Kelly Mccann & Kirsteen MackayGBR · W 30-34 · AG #41767 | GBR | W 30-34 | 1:57:59 | +64:38 |
| 131950 | #41766 | Regine Espinosa & Rheena CasioPHI · W 30-34 · AG #41766 | PHI | W 30-34 | 1:57:59 | +64:38 |
Página 5,278 de 5,500